Time;durP1;ratioP1;P1;durP2;ratioP2;P2;SDS_P1;SDS_P2;PMS_P1;PMS_P2;Temp;Humidity;BMP_temperature;BMP_pressure;BME280_temperature;BME280_humidity;BME280_pressure;Samples;Min_cycle;Max_cycle;Signal;HPM_P1;HPM_P2
2021/04/15 00:01:01;;;;;;;36.80;26.95;;;;;;;6.48;100.00;98973.01;1753708;81;21160;-65
2021/04/15 00:03:31;;;;;;;43.25;29.90;;;;;;;6.44;100.00;98971.36;1757907;80;21053;-66
2021/04/15 00:06:07;;;;;;;46.40;29.20;;;;;;;6.40;100.00;98968.08;1797483;79;21023;-65
2021/04/15 00:08:37;;;;;;;47.10;29.10;;;;;;;6.37;100.00;98971.20;1801215;79;21019;-65
2021/04/15 00:11:04;;;;;;;40.47;27.20;;;;;;;6.34;100.00;98959.17;1801182;79;21358;-64
2021/04/15 00:13:36;;;;;;;42.25;29.87;;;;;;;6.32;100.00;98962.63;1800983;79;20992;-65
2021/04/15 00:16:06;;;;;;;35.78;26.23;;;;;;;6.33;100.00;98961.56;1801027;79;20976;-65
2021/04/15 00:18:35;;;;;;;42.15;28.75;;;;;;;6.35;100.00;98964.80;1801016;79;21493;-66
2021/04/15 00:21:04;;;;;;;;;;;;;;;6.33;100.00;98971.42;1803718;79;21489;-65
2021/04/15 00:23:32;;;;;;;40.08;27.50;;;;;;;6.30;100.00;98967.91;1800914;79;21232;-65
2021/04/15 00:26:01;;;;;;;38.17;27.50;;;;;;;6.29;100.00;98966.28;1800852;79;21529;-66
2021/04/15 00:28:29;;;;;;;40.50;28.27;;;;;;;6.29;100.00;98963.08;1801131;79;21497;-65
2021/04/15 00:30:57;;;;;;;38.53;24.80;;;;;;;6.27;100.00;98965.70;1801101;79;21035;-65
2021/04/15 00:33:25;;;;;;;39.63;25.43;;;;;;;6.25;100.00;98967.80;1796162;79;21402;-65
2021/04/15 00:35:54;;;;;;;34.70;23.90;;;;;;;6.23;100.00;98962.73;1800944;79;21351;-66
2021/04/15 00:38:24;;;;;;;42.60;27.57;;;;;;;6.25;100.00;98966.46;1801077;79;20976;-65
2021/04/15 00:40:52;;;;;;;30.65;24.00;;;;;;;6.27;100.00;98964.37;1800908;79;21040;-65
2021/04/15 00:43:22;;;;;;;39.63;26.95;;;;;;;6.26;100.00;98964.09;1801043;79;20972;-64
2021/04/15 00:45:52;;;;;;;39.63;27.85;;;;;;;6.23;100.00;98966.72;1801062;79;21419;-65
2021/04/15 00:48:36;;;;;;;36.40;27.80;;;;;;;6.20;100.00;98964.55;1770178;79;25020;-66
2021/04/15 00:51:14;;;;;;;42.90;28.57;;;;;;;6.21;100.00;98965.62;1800853;79;21427;-64
2021/04/15 00:53:47;;;;;;;42.73;28.90;;;;;;;6.23;100.00;98957.39;1800916;79;20956;-64
2021/04/15 00:56:15;;;;;;;38.88;28.10;;;;;;;6.23;100.00;98959.53;1800684;79;21056;-65
2021/04/15 00:58:43;;;;;;;39.45;28.52;;;;;;;6.24;100.00;98960.33;1801082;79;21072;-64
2021/04/15 01:01:13;;;;;;;40.30;28.92;;;;;;;6.23;100.00;98957.39;1800853;79;22297;-64
2021/04/15 01:03:40;;;;;;;41.33;28.52;;;;;;;6.22;100.00;98960.59;1800930;79;21544;-65
2021/04/15 01:06:08;;;;;;;41.90;28.57;;;;;;;6.22;100.00;98955.76;1801044;79;21509;-65
2021/04/15 01:08:36;;;;;;;38.77;28.63;;;;;;;6.20;100.00;98952.02;1801231;79;21391;-65
2021/04/15 01:11:44;;;;;;;38.55;27.42;;;;;;;6.17;100.00;98953.84;1800949;79;21442;-64
2021/04/15 01:14:20;;;;;;;39.35;27.93;;;;;;;6.16;100.00;98954.06;1800901;79;21400;-64
2021/04/15 01:17:07;;;;;;;32.50;24.60;;;;;;;6.14;100.00;98960.16;1800591;79;21058;-64
2021/04/15 01:20:23;;;;;;;44.90;28.95;;;;;;;6.10;100.00;98957.67;1753593;81;20919;-65
2021/04/15 01:23:20;;;;;;;40.08;30.15;;;;;;;6.06;100.00;98949.89;1753642;81;21086;-64
2021/04/15 01:26:21;;;;;;;46.02;34.98;;;;;;;6.07;100.00;98946.17;1821467;76;27813;-66
2021/04/15 01:29:00;;;;;;;40.08;29.30;;;;;;;6.02;100.00;98950.88;1809525;78;20944;-66
2021/04/15 01:32:12;;;;;;;50.10;34.67;;;;;;;6.00;100.00;98950.30;1780358;79;21201;-66
2021/04/15 01:35:11;;;;;;;46.37;30.72;;;;;;;5.98;100.00;98947.89;1809474;79;21544;-65
2021/04/15 01:38:02;;;;;;;51.85;36.00;;;;;;;5.96;100.00;98943.33;1735252;82;20993;-64
2021/04/15 01:40:50;;;;;;;51.77;36.73;;;;;;;5.94;100.00;98944.61;1837186;76;22689;-66
2021/04/15 01:43:24;;;;;;;52.58;35.00;;;;;;;5.86;100.00;98937.78;1809641;79;21016;-65
2021/04/15 01:45:53;;;;;;;53.95;34.13;;;;;;;5.85;100.00;98940.67;1809604;79;21378;-66
2021/04/15 01:48:30;;;;;;;52.90;35.30;;;;;;;5.84;100.00;98936.41;1809569;78;20999;-66
2021/04/15 01:51:06;;;;;;;55.03;37.65;;;;;;;5.82;100.00;98939.82;1749706;80;21011;-66
2021/04/15 01:54:08;;;;;;;54.00;37.75;;;;;;;5.94;100.00;98932.09;1842310;78;22764;-66
2021/04/15 01:56:43;;;;;;;55.83;38.10;;;;;;;5.94;100.00;98932.63;1771629;80;20916;-66
2021/04/15 01:59:20;;;;;;;53.58;37.58;;;;;;;6.00;100.00;98936.98;1771733;81;21395;-63
2021/04/15 02:01:54;;;;;;;59.10;41.75;;;;;;;6.03;100.00;98928.53;1771705;81;21062;-65
2021/04/15 02:04:30;;;;;;;60.58;40.05;;;;;;;6.05;100.00;98933.61;1771660;81;21168;-67
2021/04/15 02:07:13;;;;;;;56.95;36.93;;;;;;;5.99;100.00;98932.19;1743440;82;20944;-67
2021/04/15 02:09:42;;;;;;;62.17;40.23;;;;;;;5.95;100.00;98923.08;1743497;81;21010;-66
2021/04/15 02:12:18;;;;;;;64.25;44.10;;;;;;;5.94;100.00;98932.09;1743453;81;21439;-67
2021/04/15 02:14:50;;;;;;;66.50;43.50;;;;;;;5.90;100.00;98936.23;1730782;82;21529;-66
2021/04/15 02:17:18;;;;;;;65.40;42.60;;;;;;;5.89;100.00;98928.50;1729847;83;20925;-66
2021/04/15 02:19:49;;;;;;;60.83;41.23;;;;;;;5.92;100.00;98930.16;1729755;83;20901;-66
2021/04/15 02:22:47;;;;;;;64.70;42.50;;;;;;;5.92;100.00;98922.16;1745795;81;20929;-66
2021/04/15 02:25:23;;;;;;;67.93;42.93;;;;;;;5.92;100.00;98922.16;1746755;82;21383;-66
2021/04/15 02:28:30;;;;;;;65.85;43.17;;;;;;;5.92;100.00;98918.70;1746595;82;21127;-66
2021/04/15 02:31:13;;;;;;;;;;;;;;;5.93;100.00;98917.67;1757340;80;21031;-66
2021/04/15 02:33:49;;;;;;;61.98;42.23;;;;;;;5.82;100.00;98920.66;1774906;80;20149;-66
2021/04/15 02:36:17;;;;;;;76.05;48.85;;;;;;;5.74;100.00;98916.52;1774683;80;21082;-65
2021/04/15 02:38:54;;;;;;;65.47;45.67;;;;;;;5.74;100.00;98912.52;1775129;80;21891;-65
2021/04/15 02:41:26;;;;;;;78.37;49.57;;;;;;;5.69;100.00;98911.09;1775140;80;21117;-65
2021/04/15 02:44:00;;;;;;;70.10;46.88;;;;;;;5.65;100.00;98911.80;1775015;80;21629;-65
2021/04/15 02:46:46;;;;;;;67.15;42.43;;;;;;;5.68;100.00;98909.47;1809133;79;21480;-64
2021/04/15 02:49:15;;;;;;;64.27;43.48;;;;;;;5.59;100.00;98913.56;1817585;79;21151;-65
2021/04/15 02:51:52;;;;;;;69.53;43.45;;;;;;;5.54;100.00;98911.61;1817128;77;21015;-64
2021/04/15 02:54:25;;;;;;;69.87;46.18;;;;;;;5.53;100.00;98914.50;1815393;79;20915;-65
2021/04/15 02:57:03;;;;;;;69.07;46.15;;;;;;;5.53;100.00;98913.97;1815515;79;21422;-64
2021/04/15 02:59:45;;;;;;;72.87;46.35;;;;;;;5.49;100.00;98906.19;1815261;78;20928;-65
2021/04/15 03:02:28;;;;;;;72.92;47.83;;;;;;;5.52;100.00;98908.38;1815571;79;20853;-65
2021/04/15 03:05:14;;;;;;;76.17;46.05;;;;;;;5.53;100.00;98899.86;1814961;79;21197;-66
2021/04/15 03:07:43;;;;;;;66.65;45.23;;;;;;;5.54;100.00;98904.95;1814892;79;20916;-66
2021/04/15 03:10:17;;;;;;;68.83;46.18;;;;;;;5.55;100.00;98909.75;1814796;77;20939;-65
2021/04/15 03:12:52;;;;;;;72.15;46.68;;;;;;;5.51;100.00;98904.11;1814855;78;20912;-65
2021/04/15 03:15:25;;;;;;;68.33;46.02;;;;;;;5.54;100.00;98901.49;1814914;78;20893;-64
2021/04/15 03:17:57;;;;;;;85.80;55.67;;;;;;;5.54;100.00;98910.81;1814932;79;21299;-65
2021/04/15 03:20:33;;;;;;;79.07;51.58;;;;;;;5.63;100.00;98908.56;1782910;79;20975;-65
2021/04/15 03:23:44;;;;;;;76.15;51.53;;;;;;;5.71;100.00;98908.21;1776478;80;20911;-65
2021/04/15 03:26:41;;;;;;;88.33;51.88;;;;;;;5.78;100.00;98911.51;1739436;82;21051;-64
2021/04/15 03:29:28;;;;;;;81.10;52.62;;;;;;;5.96;100.00;98902.56;1842398;78;22608;-65
2021/04/15 03:32:31;;;;;;;84.77;53.30;;;;;;;6.01;100.00;98905.31;1734757;82;20929;-65
2021/04/15 03:35:26;;;;;;;85.03;52.40;;;;;;;6.04;100.00;98907.49;1734791;82;21849;-65
2021/04/15 03:38:34;;;;;;;85.07;57.27;;;;;;;6.12;100.00;98916.42;1734637;82;21481;-65
2021/04/15 03:41:15;;;;;;;77.25;51.28;;;;;;;6.17;100.00;98920.53;1734789;82;20980;-65
2021/04/15 03:44:00;;;;;;;86.22;56.55;;;;;;;6.27;100.00;98925.23;1842202;77;23271;-62
2021/04/15 03:46:45;;;;;;;83.37;55.00;;;;;;;6.26;100.00;98927.59;1797396;79;20905;-64
2021/04/15 03:49:27;;;;;;;81.47;52.05;;;;;;;6.29;100.00;98930.30;1750595;81;21389;-65
2021/04/15 03:52:07;;;;;;;85.25;51.28;;;;;;;6.30;100.00;98923.41;1781460;80;20999;-64
2021/04/15 03:54:42;;;;;;;74.27;49.23;;;;;;;6.30;100.00;98930.59;1750565;82;21000;-63
2021/04/15 03:57:14;;;;;;;76.87;49.48;;;;;;;6.30;100.00;98927.41;1613151;87;21085;-63
2021/04/15 03:59:57;;;;;;;79.77;51.33;;;;;;;6.30;100.00;98932.73;1693647;84;21083;-63
2021/04/15 04:02:32;;;;;;;76.90;48.78;;;;;;;6.32;100.00;98937.30;1638418;87;21403;-63
2021/04/15 04:05:17;;;;;;;79.03;51.55;;;;;;;6.34;100.00;98933.84;1638506;86;20962;-64
2021/04/15 04:08:01;;;;;;;90.38;55.65;;;;;;;6.42;100.00;98934.80;1837240;78;23185;-62
2021/04/15 04:10:38;;;;;;;81.55;53.25;;;;;;;6.40;100.00;98936.09;1809721;79;20952;-63
2021/04/15 04:13:29;;;;;;;70.20;47.90;;;;;;;6.44;100.00;98931.88;1735398;81;21587;-62
2021/04/15 04:16:08;;;;;;;70.15;44.10;;;;;;;6.47;100.00;98938.58;1735249;81;21182;-62
2021/04/15 04:19:11;;;;;;;66.28;43.05;;;;;;;6.53;100.00;98934.97;1837244;77;22399;-65
2021/04/15 04:21:54;;;;;;;69.75;43.73;;;;;;;6.50;100.00;98940.26;1750569;80;20928;-64
2021/04/15 04:24:41;;;;;;;69.80;46.75;;;;;;;6.51;100.00;98941.86;1750406;80;21177;-65
2021/04/15 04:27:36;;;;;;;71.92;48.75;;;;;;;6.53;100.00;98942.43;1750545;80;20988;-63
2021/04/15 04:30:21;;;;;;;63.70;41.58;;;;;;;6.56;100.00;98945.14;1750472;80;20888;-64
2021/04/15 04:33:00;;;;;;;64.00;42.67;;;;;;;6.62;100.00;98946.84;1750280;80;21608;-64
2021/04/15 04:35:31;;;;;;;69.03;43.73;;;;;;;6.66;100.00;98939.95;1750405;80;21000;-64
2021/04/15 04:38:03;;;;;;;70.30;43.75;;;;;;;6.70;100.00;98942.97;1750370;80;21353;-63
2021/04/15 04:40:48;;;;;;;58.15;39.45;;;;;;;6.73;100.00;98947.27;1750384;80;21004;-65
2021/04/15 04:43:26;;;;;;;63.50;41.73;;;;;;;6.79;100.00;98940.18;1750257;80;21039;-63
2021/04/15 04:45:59;;;;;;;73.85;40.00;;;;;;;6.84;100.00;98945.59;1750315;80;21047;-64
2021/04/15 04:48:43;;;;;;;66.02;40.43;;;;;;;6.92;100.00;98943.83;1750389;80;21154;-64
2021/04/15 04:51:47;;;;;;;59.18;40.73;;;;;;;7.03;100.00;98945.61;1842362;78;22389;-66
2021/04/15 04:54:19;;;;;;;57.53;36.75;;;;;;;7.06;100.00;98942.97;1705523;82;21058;-65
2021/04/15 04:57:05;;;;;;;57.25;39.03;;;;;;;7.14;100.00;98948.41;1705428;82;22266;-66
2021/04/15 04:59:40;;;;;;;56.50;38.63;;;;;;;7.20;100.00;98948.75;1705354;82;21085;-65
2021/04/15 05:02:09;;;;;;;54.83;40.25;;;;;;;7.27;100.00;98951.52;1705550;84;21461;-65
2021/04/15 05:08:09;;;;;;;49.65;34.13;;;;;;;7.42;100.00;98952.27;1609003;88;21510;-65
2021/04/15 05:10:46;;;;;;;51.08;34.08;;;;;;;7.51;100.00;98948.63;1812530;77;22754;-67
2021/04/15 05:13:18;;;;;;;52.13;37.42;;;;;;;7.47;100.00;98957.67;1754510;79;20896;-66
2021/04/15 05:19:20;;;;;;;42.73;30.23;;;;;;;7.59;100.00;98956.20;1648760;85;21041;-67
2021/04/15 05:21:49;;;;;;;48.68;35.33;;;;;;;7.71;100.00;98948.06;1648924;86;21044;-67
2021/04/15 05:24:28;;;;;;;46.95;31.90;;;;;;;7.75;100.00;98959.06;1627104;87;21065;-67
2021/04/15 05:26:57;;;;;;;47.67;33.15;;;;;;;7.85;100.00;98949.83;1648985;87;20997;-67
2021/04/15 05:29:36;;;;;;;47.58;30.35;;;;;;;7.95;100.00;98949.94;1648892;87;21387;-67
2021/04/15 05:32:30;;;;;;;50.15;31.35;;;;;;;8.03;100.00;98954.82;1547200;92;21029;-65
2021/04/15 05:35:11;;;;;;;49.25;31.85;;;;;;;8.11;100.00;98948.24;1837305;77;22533;-65
2021/04/15 05:37:39;;;;;;;47.25;31.93;;;;;;;8.15;100.00;98950.67;1809650;79;21015;-66
2021/04/15 05:40:09;;;;;;;40.90;30.55;;;;;;;8.37;100.00;98955.42;1809789;79;21422;-64
2021/04/15 05:42:44;;;;;;;47.55;33.08;;;;;;;8.38;100.00;98953.58;1809428;79;20936;-64
2021/04/15 05:45:25;;;;;;;41.95;28.83;;;;;;;8.34;100.00;98955.13;1809603;78;20952;-64
2021/04/15 05:48:06;;;;;;;36.75;26.25;;;;;;;8.62;100.00;98946.56;1809584;79;20963;-65
2021/04/15 05:50:51;;;;;;;37.45;27.58;;;;;;;8.78;100.00;98951.78;1809629;79;20909;-65
2021/04/15 05:53:36;;;;;;;38.25;26.33;;;;;;;8.98;100.00;98936.39;1809619;79;21307;-65
2021/04/15 05:56:15;;;;;;;35.90;26.00;;;;;;;9.13;100.00;98942.36;1809573;78;20917;-65
2021/04/15 05:59:07;;;;;;;39.58;29.00;;;;;;;9.04;100.00;98939.92;1800983;78;20944;-66
2021/04/15 06:01:45;;;;;;;36.10;25.70;;;;;;;9.13;100.00;98942.91;1697381;84;21603;-65
2021/04/15 06:04:25;;;;;;;35.75;26.48;;;;;;;9.31;100.00;98942.99;1685220;83;20996;-66
2021/04/15 06:06:55;;;;;;;42.88;28.30;;;;;;;9.31;100.00;98941.66;1685040;83;20960;-65
2021/04/15 06:13:17;;;;;;;39.90;26.30;;;;;;;9.44;100.00;98945.22;1603055;88;21182;-66
2021/04/15 06:16:01;;;;;;;34.38;25.72;;;;;;;9.42;100.00;98933.95;1817224;78;22609;-65
2021/04/15 06:18:42;;;;;;;36.08;25.35;;;;;;;9.18;100.00;98947.75;1785467;80;20979;-66
2021/04/15 06:21:23;;;;;;;36.25;25.00;;;;;;;9.14;100.00;98937.30;1785208;80;21389;-67
2021/04/15 06:24:10;;;;;;;37.08;27.35;;;;;;;9.08;100.00;98945.02;1785420;79;21421;-67
2021/04/15 06:26:57;;;;;;;41.00;28.47;;;;;;;8.99;100.00;98934.00;1785317;80;21003;-67
2021/04/15 06:29:47;;;;;;;42.17;26.30;;;;;;;9.04;100.00;98937.25;1785457;80;20979;-66
2021/04/15 06:32:24;;;;;;;37.65;26.82;;;;;;;9.26;100.00;98945.65;1785122;80;20995;-65
2021/04/15 06:35:01;;;;;;;39.92;28.23;;;;;;;9.50;100.00;98934.78;1837146;78;22771;-66
2021/04/15 06:37:44;;;;;;;42.83;29.02;;;;;;;9.51;100.00;98939.09;1809689;79;20905;-65
2021/04/15 06:40:45;;;;;;;47.13;29.48;;;;;;;9.58;100.00;98934.30;1809616;78;21408;-67
2021/04/15 06:43:25;;;;;;;42.10;28.07;;;;;;;9.81;100.00;98934.37;1809443;79;21544;-66
2021/04/15 06:46:27;;;;;;;42.13;28.90;;;;;;;9.86;100.00;98934.92;1809430;79;20999;-65
2021/04/15 06:49:26;;;;;;;42.30;28.10;;;;;;;9.83;100.00;98940.81;1809594;79;21043;-65
2021/04/15 06:52:40;;;;;;;39.63;30.62;;;;;;;10.16;100.00;98942.76;1788464;78;28357;-67
2021/04/15 06:55:34;;;;;;;39.18;25.82;;;;;;;10.31;100.00;98941.46;1779088;80;21438;-66
2021/04/15 06:58:31;;;;;;;34.83;25.17;;;;;;;10.75;100.00;98944.96;1779073;80;21387;-67
2021/04/15 07:01:25;;;;;;;38.20;24.95;;;;;;;10.97;100.00;98939.30;1779174;80;20904;-67
2021/04/15 07:04:04;;;;;;;33.38;25.12;;;;;;;11.47;100.00;98945.63;1779128;80;20983;-67
2021/04/15 07:06:57;;;;;;;32.63;22.25;;;;;;;11.73;100.00;98944.97;1779049;80;20928;-66
2021/04/15 07:09:58;;;;;;;29.75;21.40;;;;;;;12.07;100.00;98938.91;1779079;80;21531;-66
2021/04/15 07:12:54;;;;;;;26.27;20.15;;;;;;;12.20;100.00;98948.27;1778936;80;22029;-66
2021/04/15 07:16:26;;;;;;;24.95;19.92;;;;;;;12.19;100.00;98953.38;1728516;82;20939;-68
2021/04/15 07:19:19;;;;;;;26.52;19.12;;;;;;;12.01;100.00;98951.59;1797144;79;20934;-68
2021/04/15 07:22:07;;;;;;;31.93;23.07;;;;;;;11.87;100.00;98947.11;1797071;79;20990;-68
2021/04/15 07:24:59;;;;;;;26.90;20.15;;;;;;;11.46;100.00;98953.95;1797094;79;21090;-69
2021/04/15 07:27:48;;;;;;;28.55;21.17;;;;;;;11.37;100.00;98955.88;1796310;79;21439;-68
2021/04/15 07:30:34;;;;;;;24.05;18.92;;;;;;;11.49;100.00;98957.44;1792121;78;21541;-67
2021/04/15 07:33:54;;;;;;;30.48;20.52;;;;;;;11.51;100.00;98952.59;1787289;79;20901;-67
2021/04/15 07:36:49;;;;;;;24.23;18.67;;;;;;;11.58;100.00;98952.56;1787672;80;21513;-66
2021/04/15 07:39:25;;;;;;;24.02;16.30;;;;;;;11.34;100.00;98951.05;1787743;80;21529;-65
2021/04/15 07:42:42;;;;;;;20.15;15.70;;;;;;;11.41;100.00;98953.98;1787089;80;22771;-65
2021/04/15 07:45:33;;;;;;;17.87;14.40;;;;;;;11.54;100.00;98954.21;1803674;78;20925;-66
2021/04/15 07:48:57;;;;;;;18.20;14.50;;;;;;;11.83;100.00;98954.88;1792896;78;21575;-66
2021/04/15 07:52:07;;;;;;;19.60;14.03;;;;;;;11.84;100.00;98955.16;1789978;78;21194;-66
2021/04/15 07:54:57;;;;;;;20.05;15.43;;;;;;;11.90;100.00;98950.03;1828948;78;20992;-66
2021/04/15 07:58:09;;;;;;;22.27;16.87;;;;;;;12.01;100.00;98956.98;1748210;82;21448;-66
2021/04/15 08:01:08;;;;;;;23.92;16.73;;;;;;;12.09;100.00;98952.89;1788966;78;21189;-65
2021/04/15 08:04:14;;;;;;;20.25;14.95;;;;;;;12.00;100.00;98959.93;1778599;79;21569;-65
2021/04/15 08:07:37;;;;;;;25.95;15.38;;;;;;;11.82;100.00;98951.14;1836335;77;22786;-66
2021/04/15 08:10:46;;;;;;;19.87;15.35;;;;;;;11.63;100.00;98954.98;1808960;79;21469;-65
2021/04/15 08:13:31;;;;;;;22.48;16.00;;;;;;;11.57;100.00;98942.91;1710050;82;22021;-67
2021/04/15 08:16:45;;;;;;;23.77;17.80;;;;;;;11.45;100.00;98946.44;1734104;82;21060;-67
2021/04/15 08:20:00;;;;;;;16.82;13.88;;;;;;;11.61;100.00;98943.69;1735777;81;21074;-64
2021/04/15 08:23:03;;;;;;;19.20;13.43;;;;;;;11.74;100.00;98942.56;1743636;81;21093;-65
2021/04/15 08:26:21;;;;;;;18.92;14.15;;;;;;;11.76;100.00;98939.61;1734708;81;21193;-62
2021/04/15 08:29:29;;;;;;;19.45;13.18;;;;;;;11.70;100.00;98940.16;1832264;76;22854;-63
2021/04/15 08:32:21;;;;;;;17.10;13.65;;;;;;;11.70;100.00;98941.50;1755495;78;21288;-62
2021/04/15 08:35:28;;;;;;;17.42;13.95;;;;;;;11.71;100.00;98937.75;1680380;82;21385;-61
2021/04/15 08:38:18;;;;;;;;;;;;;;;11.68;100.00;98942.31;1576757;90;21121;-60
2021/04/15 08:41:33;;;;;;;18.57;13.38;;;;;;;11.72;100.00;98947.41;1571533;91;20649;-61
2021/04/15 08:44:40;;;;;;;20.65;13.93;;;;;;;11.80;100.00;98943.34;1571822;91;21114;-61
2021/04/15 08:47:41;;;;;;;17.87;13.30;;;;;;;11.80;100.00;98944.68;1836624;78;22722;-61
2021/04/15 08:50:38;;;;;;;17.05;12.82;;;;;;;11.91;100.00;98946.83;1799621;79;20980;-62
2021/04/15 08:53:53;;;;;;;18.32;11.75;;;;;;;11.77;100.00;98941.20;1760663;77;21195;-61
2021/04/15 08:56:36;;;;;;;17.90;12.50;;;;;;;11.74;100.00;98948.48;1793306;77;21129;-61
2021/04/15 08:59:53;;;;;;;18.62;13.62;;;;;;;11.84;100.00;98944.95;1710268;81;21007;-62
2021/04/15 09:03:19;;;;;;;31.70;19.07;;;;;;;11.90;100.00;98939.27;1763100;80;21117;-61
2021/04/15 09:06:41;;;;;;;22.93;15.80;;;;;;;11.70;100.00;98946.08;1659792;84;21214;-61
2021/04/15 09:09:20;;;;;;;20.45;14.95;;;;;;;11.36;100.00;98939.47;1636139;87;21380;-61
2021/04/15 09:12:17;;;;;;;19.87;13.90;;;;;;;11.13;100.00;98946.80;1621018;87;21045;-62
2021/04/15 09:15:26;;;;;;;18.70;13.90;;;;;;;11.04;100.00;98945.73;1638959;86;21087;-61
2021/04/15 09:18:25;;;;;;;19.82;14.55;;;;;;;11.00;100.00;98944.66;1604971;88;21162;-61
2021/04/15 09:21:16;;;;;;;14.20;11.03;;;;;;;11.25;100.00;98948.66;1643196;87;21231;-62
2021/04/15 09:24:17;;;;;;;14.73;10.13;;;;;;;11.57;100.00;98946.13;1643073;87;21393;-62
2021/04/15 09:27:45;;;;;;;12.47;10.20;;;;;;;11.71;100.00;98941.78;1836359;76;22798;-61
2021/04/15 09:30:53;;;;;;;13.13;10.25;;;;;;;11.84;100.00;98942.26;1808775;79;21516;-61
2021/04/15 09:33:49;;;;;;;12.40;9.43;;;;;;;11.96;100.00;98942.77;1809018;79;21375;-62
2021/04/15 09:36:52;;;;;;;13.85;10.78;;;;;;;12.21;100.00;98931.83;1777185;79;21118;-62
2021/04/15 09:40:08;;;;;;;13.72;10.23;;;;;;;12.29;100.00;98944.44;1782341;80;20915;-63
2021/04/15 09:43:09;;;;;;;13.10;11.35;;;;;;;12.33;100.00;98948.19;1782294;80;21014;-63
2021/04/15 09:45:55;;;;;;;11.22;8.73;;;;;;;12.21;100.00;98945.83;1782356;80;21133;-62
2021/04/15 09:49:01;;;;;;;11.73;9.38;;;;;;;12.18;100.00;98942.36;1752122;81;21197;-63
2021/04/15 09:52:10;;;;;;;20.57;11.68;;;;;;;12.17;100.00;98938.84;1740162;82;20999;-62
2021/04/15 09:55:22;;;;;;;13.38;10.63;;;;;;;12.24;100.00;98938.54;1826453;78;22644;-61
2021/04/15 09:58:22;;;;;;;17.98;12.33;;;;;;;12.04;100.00;98938.13;1743114;81;20951;-63
2021/04/15 10:00:54;;;;;;;12.15;10.85;;;;;;;12.05;100.00;98941.63;1750690;82;21049;-62
2021/04/15 10:04:04;;;;;;;11.90;9.55;;;;;;;12.17;100.00;98944.22;1711573;82;20929;-62
2021/04/15 10:06:36;;;;;;;10.90;9.65;;;;;;;12.14;100.00;98934.03;1751476;78;20936;-62
2021/04/15 10:09:27;;;;;;;10.68;8.75;;;;;;;12.09;100.00;98939.45;1709686;81;20934;-61
2021/04/15 10:12:15;;;;;;;14.07;10.78;;;;;;;11.98;100.00;98937.91;1763443;80;20925;-61
2021/04/15 10:15:09;;;;;;;13.48;9.75;;;;;;;11.97;100.00;98938.98;1762064;80;21412;-61
2021/04/15 10:17:57;;;;;;;18.42;12.40;;;;;;;11.83;100.00;98937.40;1763095;80;20943;-61
2021/04/15 10:20:55;;;;;;;18.65;12.70;;;;;;;11.79;100.00;98933.13;1781309;80;20897;-63
2021/04/15 10:23:37;;;;;;;117.53;48.52;;;;;;;11.92;100.00;98937.66;1781520;80;20982;-64
2021/04/15 10:26:33;;;;;;;46.75;23.57;;;;;;;11.82;100.00;98933.66;1780584;80;20870;-63
2021/04/15 10:29:27;;;;;;;18.42;11.35;;;;;;;11.87;100.00;98932.31;1765863;81;21402;-63
2021/04/15 10:32:39;;;;;;;13.20;9.68;;;;;;;11.91;100.00;98933.37;1736315;80;20941;-62
2021/04/15 10:35:33;;;;;;;13.72;9.00;;;;;;;11.89;100.00;98938.23;1766199;80;20911;-63
2021/04/15 10:38:42;;;;;;;13.60;10.60;;;;;;;11.85;100.00;98939.27;1672440;85;21509;-61
2021/04/15 10:42:07;;;;;;;11.97;9.48;;;;;;;11.87;100.00;98937.70;1643682;86;21031;-62
2021/04/15 10:45:11;;;;;;;11.63;9.38;;;;;;;11.95;100.00;98939.80;1701936;84;21468;-62
2021/04/15 10:48:09;;;;;;;10.53;8.85;;;;;;;12.22;100.00;98943.39;1655372;86;20952;-63
2021/04/15 10:51:01;;;;;;;9.88;8.88;;;;;;;12.39;100.00;98938.97;1655517;86;20964;-62
2021/04/15 10:53:53;;;;;;;9.18;7.37;;;;;;;12.52;100.00;98938.35;1658746;86;21197;-62
2021/04/15 10:56:28;;;;;;;11.05;8.60;;;;;;;12.71;100.00;98937.64;1696668;83;21589;-63
2021/04/15 10:59:07;;;;;;;11.78;8.58;;;;;;;12.69;100.00;98942.51;1721465;82;21377;-62
2021/04/15 11:01:42;;;;;;;11.05;9.15;;;;;;;12.66;100.00;98941.18;1719557;83;21136;-63
2021/04/15 11:04:18;;;;;;;10.23;9.13;;;;;;;12.89;100.00;98937.51;1726556;83;21113;-65
2021/04/15 11:06:58;;;;;;;9.00;8.10;;;;;;;12.94;100.00;98938.25;1726170;83;21521;-64
2021/04/15 11:09:38;;;;;;;8.43;7.47;;;;;;;12.84;100.00;98935.66;1708529;83;21036;-63
2021/04/15 11:12:28;;;;;;;9.95;7.40;;;;;;;12.99;100.00;98936.86;1693088;83;21017;-64
2021/04/15 11:15:22;;;;;;;8.43;7.47;;;;;;;12.89;100.00;98934.27;1780278;79;22741;-63
2021/04/15 11:17:53;;;;;;;13.25;7.10;;;;;;;12.82;100.00;98937.83;1745082;81;21003;-64
2021/04/15 11:20:32;;;;;;;9.08;6.85;;;;;;;12.71;100.00;98941.14;1745853;81;22192;-66
2021/04/15 11:23:13;;;;;;;8.08;6.60;;;;;;;12.83;100.00;98939.42;1746865;81;21441;-63
2021/04/15 11:25:52;;;;;;;9.33;7.22;;;;;;;13.03;100.00;98937.91;1750570;81;20892;-64
2021/04/15 11:28:25;;;;;;;9.73;6.70;;;;;;;13.31;100.00;98932.78;1745876;81;21003;-69
2021/04/15 11:31:14;;;;;;;8.83;7.00;;;;;;;13.39;100.00;98932.69;1736861;81;20891;-67
2021/04/15 11:33:49;;;;;;;7.33;6.60;;;;;;;13.32;100.00;98936.27;1758075;81;21382;-65
2021/04/15 11:36:31;;;;;;;6.70;5.95;;;;;;;13.78;100.00;98932.48;1758039;81;20987;-67
2021/04/15 11:39:16;;;;;;;6.72;5.62;;;;;;;14.02;100.00;98920.84;1758113;80;20986;-68
2021/04/15 11:41:55;;;;;;;6.83;6.12;;;;;;;14.02;100.00;98931.63;1757962;81;21437;-67
2021/04/15 11:44:28;;;;;;;6.72;5.87;;;;;;;14.14;100.00;98925.25;1758242;80;21429;-68
2021/04/15 11:47:13;;;;;;;10.03;5.22;;;;;;;14.03;100.00;98916.48;1757857;81;23456;-68
2021/04/15 11:49:43;;;;;;;6.00;4.97;;;;;;;13.80;100.00;98926.25;1683151;84;21495;-68
2021/04/15 11:52:24;;;;;;;6.72;4.85;;;;;;;13.82;100.00;98920.58;1678794;85;20980;-68
2021/04/15 11:54:57;;;;;;;7.83;5.05;;;;;;;13.86;100.00;98918.33;1676041;83;21074;-69
2021/04/15 11:57:39;;;;;;;6.53;5.20;;;;;;;13.87;100.00;98924.00;1653363;84;21650;-67
2021/04/15 12:00:18;;;;;;;5.47;4.87;;;;;;;13.75;100.00;98922.28;1673319;85;21443;-67
2021/04/15 12:03:10;;;;;;;;;;;;;;;;;;;;;
2021/04/15 12:05:42;;;;;;;5.90;5.30;;;;;;;13.29;100.00;98908.01;1843911;77;22644;-69
2021/04/15 12:08:31;;;;;;;5.17;4.67;;;;;;;12.98;100.00;98915.58;1820325;78;21020;-68
2021/04/15 12:11:27;;;;;;;6.05;5.08;;;;;;;13.01;100.00;98915.03;1817121;78;21370;-68
2021/04/15 12:14:03;;;;;;;7.65;5.22;;;;;;;13.51;100.00;98912.88;1820638;78;21154;-68
2021/04/15 12:17:00;;;;;;;5.35;4.85;;;;;;;13.68;100.00;98913.19;1789362;80;21427;-68
2021/04/15 12:20:16;;;;;;;4.80;4.40;;;;;;;13.51;100.00;98915.02;1782733;80;21067;-68
2021/04/15 12:23:23;;;;;;;6.20;4.92;;;;;;;13.53;100.00;98922.03;1750073;81;20908;-70
2021/04/15 12:26:03;;;;;;;6.55;5.00;;;;;;;13.32;100.00;98914.71;1748969;81;22287;-69
2021/04/15 12:28:47;;;;;;;7.67;4.70;;;;;;;12.78;100.00;98905.81;1748186;80;21046;-70
2021/04/15 12:31:31;;;;;;;7.40;6.10;;;;;;;12.59;100.00;98903.84;1745763;81;20983;-69
2021/04/15 12:34:13;;;;;;;5.92;5.33;;;;;;;12.51;100.00;98900.94;1755687;81;21031;-69
2021/04/15 12:36:47;;;;;;;6.20;5.60;;;;;;;12.32;100.00;98905.67;1752293;81;21024;-69
2021/04/15 12:39:23;;;;;;;7.40;5.80;;;;;;;12.15;100.00;98899.34;1758175;81;21360;-69
2021/04/15 12:41:51;;;;;;;6.45;5.58;;;;;;;12.17;100.00;98900.38;1757961;81;21000;-69
2021/04/15 12:44:25;;;;;;;6.70;5.42;;;;;;;12.21;100.00;98896.86;1698656;83;21441;-70
2021/04/15 12:46:56;;;;;;;6.03;5.42;;;;;;;12.44;100.00;98889.14;1701664;82;20992;-68
2021/04/15 12:49:28;;;;;;;6.90;6.20;;;;;;;12.52;100.00;98887.20;1701107;84;21002;-68
2021/04/15 12:51:59;;;;;;;6.83;6.17;;;;;;;12.54;100.00;98884.22;1667655;84;21179;-70
2021/04/15 12:54:36;;;;;;;7.05;6.05;;;;;;;12.38;100.00;98883.01;1699854;83;21098;-68
2021/04/15 12:57:07;;;;;;;7.17;6.40;;;;;;;12.27;100.00;98882.02;1701085;83;20899;-68